createdAt,value
2023-05-22T00:02:09.097Z,11.73
2023-05-22T00:07:10.576Z,12.15
2023-05-22T00:12:12.066Z,11.90
2023-05-22T00:17:13.653Z,12.77
2023-05-22T00:22:15.240Z,11.45
2023-05-22T00:27:16.700Z,12.25
2023-05-22T00:32:18.145Z,11.75
2023-05-22T00:37:19.753Z,11.98
2023-05-22T00:42:22.759Z,11.60
2023-05-22T00:47:24.408Z,11.40
2023-05-22T00:52:26.012Z,12.50
2023-05-22T00:57:27.913Z,11.93
2023-05-22T01:02:30.007Z,12.55
2023-05-22T01:07:31.893Z,11.68
2023-05-22T01:12:53.630Z,11.43
2023-05-22T01:18:20.060Z,11.65
2023-05-22T01:23:43.381Z,11.20
2023-05-22T01:29:01.909Z,10.55
2023-05-22T01:34:07.082Z,11.15
2023-05-22T01:39:08.705Z,10.82
2023-05-22T01:44:10.173Z,10.15
2023-05-22T01:49:11.628Z,11.18
2023-05-22T01:54:19.771Z,9.45
2023-05-22T01:59:34.611Z,10.30
2023-05-22T02:04:42.429Z,10.60
2023-05-22T02:09:45.819Z,10.27
2023-05-22T02:14:47.606Z,11.07
2023-05-22T02:19:49.130Z,10.43
2023-05-22T02:24:50.667Z,10.77
2023-05-22T02:29:52.193Z,10.18
2023-05-22T02:34:54.830Z,10.75
2023-05-22T02:39:57.028Z,10.35
2023-05-22T02:44:59.309Z,10.05
2023-05-22T02:50:00.819Z,9.93
2023-05-22T02:55:03.580Z,10.05
2023-05-22T03:00:05.713Z,9.23
2023-05-22T03:05:07.575Z,9.70
2023-05-22T03:10:09.203Z,10.63
2023-05-22T03:15:11.378Z,9.98
2023-05-22T03:20:14.717Z,9.95
2023-05-22T03:25:16.506Z,10.55
2023-05-22T03:30:18.346Z,9.57
2023-05-22T03:35:30.720Z,9.45
2023-05-22T03:40:32.221Z,8.85
2023-05-22T03:45:34.547Z,8.73
2023-05-22T03:50:37.917Z,10.25
2023-05-22T03:55:39.617Z,9.48
2023-05-22T04:00:41.128Z,9.50
2023-05-22T04:05:42.671Z,8.73
2023-05-22T04:10:45.208Z,8.65
2023-05-22T04:15:46.913Z,9.30
2023-05-22T04:20:48.603Z,8.15
2023-05-22T04:25:50.395Z,7.97
2023-05-22T04:30:54.320Z,7.97
2023-05-22T04:35:55.821Z,7.72
2023-05-22T04:40:57.318Z,7.43
2023-05-22T04:45:58.852Z,7.45
2023-05-22T04:51:00.340Z,7.35
2023-05-22T04:56:01.971Z,7.15
2023-05-22T05:01:04.583Z,7.47
2023-05-22T05:06:06.409Z,7.93
2023-05-22T05:11:08.020Z,6.60
2023-05-22T05:16:09.588Z,6.07
2023-05-22T05:21:11.647Z,5.72
2023-05-22T05:26:13.862Z,6.15
2023-05-22T05:31:15.577Z,6.25
2023-05-22T05:36:41.734Z,5.85
2023-05-22T05:41:43.378Z,6.00
2023-05-22T05:46:45.657Z,6.18
2023-05-22T05:51:50.023Z,6.83
2023-05-22T05:56:52.893Z,8.15
2023-05-22T06:01:54.781Z,7.82
2023-05-22T06:07:01.296Z,5.90
2023-05-22T06:12:12.645Z,5.97
2023-05-22T06:17:16.675Z,5.30
2023-05-22T06:22:19.563Z,5.15
2023-05-22T06:27:24.379Z,5.40
2023-05-22T06:32:26.168Z,5.55
2023-05-22T06:37:28.796Z,4.80
2023-05-22T06:42:30.463Z,4.50
2023-05-22T06:47:53.964Z,5.07
2023-05-22T06:52:56.000Z,5.05
2023-05-22T06:57:57.650Z,4.97
2023-05-22T07:03:00.973Z,5.43
2023-05-22T07:08:08.971Z,4.78
2023-05-22T07:13:10.603Z,4.40
2023-05-22T07:18:12.353Z,5.20
2023-05-22T07:23:16.109Z,4.88
2023-05-22T07:28:18.013Z,4.93
2023-05-22T07:33:36.180Z,4.60
2023-05-22T07:38:37.913Z,4.70
2023-05-22T07:43:39.516Z,4.68
2023-05-22T07:48:41.853Z,4.82
2023-05-22T07:53:44.093Z,4.63
2023-05-22T07:58:46.305Z,5.78
2023-05-22T08:03:48.015Z,5.38
2023-05-22T08:08:50.284Z,5.22
2023-05-22T08:13:51.778Z,4.30
2023-05-22T08:18:53.325Z,4.68
2023-05-22T08:23:54.839Z,4.65
2023-05-22T08:29:00.749Z,4.95
2023-05-22T08:34:02.320Z,3.95
2023-05-22T08:39:04.170Z,3.75
2023-05-22T08:44:05.728Z,3.60
2023-05-22T08:49:10.690Z,4.30
2023-05-22T08:54:12.497Z,3.50
2023-05-22T08:59:14.083Z,4.10
2023-05-22T09:04:15.993Z,4.47
2023-05-22T09:09:17.517Z,3.90
2023-05-22T09:14:19.020Z,4.00
2023-05-22T09:19:20.588Z,3.65
2023-05-22T09:24:22.168Z,4.35
2023-05-22T09:29:23.634Z,3.70
2023-05-22T09:34:29.189Z,3.50
2023-05-22T09:39:40.661Z,3.70
2023-05-22T09:44:42.321Z,4.00
2023-05-22T09:49:45.153Z,4.22
2023-05-22T09:54:56.341Z,3.83
2023-05-22T09:59:59.077Z,3.38
2023-05-22T10:05:04.658Z,3.90
2023-05-22T10:15:11.610Z,4.20
2023-05-22T10:20:14.008Z,3.70
2023-05-22T10:25:17.028Z,3.90
2023-05-22T10:30:39.840Z,3.70
2023-05-22T10:36:27.105Z,3.63
2023-05-22T10:41:28.767Z,3.53
2023-05-22T10:46:33.043Z,3.85
2023-05-22T10:51:34.724Z,3.60
2023-05-22T10:56:37.347Z,4.15
2023-05-22T11:01:38.947Z,3.40
2023-05-22T11:07:15.108Z,3.58
2023-05-22T11:12:28.946Z,4.07
2023-05-22T11:17:33.893Z,4.35
2023-05-22T11:22:35.362Z,3.60
2023-05-22T11:27:40.355Z,3.72
2023-05-22T11:32:44.674Z,3.72
2023-05-22T11:37:47.553Z,3.65
2023-05-22T11:42:49.017Z,3.35
2023-05-22T11:47:50.670Z,3.75
2023-05-22T11:52:53.776Z,4.05
2023-05-22T11:57:55.773Z,3.88
2023-05-22T12:02:58.112Z,4.38
2023-05-22T12:07:59.856Z,3.80
2023-05-22T12:13:01.441Z,4.53
2023-05-22T12:18:03.034Z,4.07
2023-05-22T12:23:04.693Z,3.90
2023-05-22T12:28:06.941Z,4.45
2023-05-22T12:33:14.705Z,3.90
2023-05-22T12:38:16.273Z,4.03
2023-05-22T12:43:17.861Z,4.00
2023-05-22T12:48:19.467Z,4.25
2023-05-22T12:53:20.988Z,4.22
2023-05-22T12:58:22.486Z,3.95
2023-05-22T13:03:24.052Z,4.20
2023-05-22T13:08:25.572Z,3.80
2023-05-22T13:13:27.041Z,3.97
2023-05-22T13:18:28.497Z,3.90
2023-05-22T13:23:29.974Z,3.60
2023-05-22T13:28:31.570Z,4.45
2023-05-22T13:33:33.098Z,4.00
2023-05-22T13:38:34.624Z,4.25
2023-05-22T13:43:36.112Z,3.95
2023-05-22T13:48:37.634Z,3.65
2023-05-22T13:53:39.207Z,4.45
2023-05-22T13:58:40.681Z,3.70
2023-05-22T14:03:43.332Z,4.43
2023-05-22T14:08:44.808Z,4.30
2023-05-22T14:13:46.327Z,4.30
2023-05-22T14:18:47.831Z,4.03
2023-05-22T14:23:49.317Z,3.85
2023-05-22T14:28:50.798Z,3.80
2023-05-22T14:33:52.309Z,3.88
2023-05-22T14:38:55.565Z,3.55
2023-05-22T14:43:57.009Z,3.67
2023-05-22T14:48:58.508Z,3.55
2023-05-22T14:53:59.991Z,3.97
2023-05-22T14:59:01.466Z,5.47
2023-05-22T15:04:02.965Z,5.82
2023-05-22T15:09:04.463Z,6.38
2023-05-22T15:14:05.962Z,6.80
2023-05-22T15:19:07.764Z,5.60
2023-05-22T15:24:09.336Z,6.22
2023-05-22T15:29:11.123Z,6.55
2023-05-22T15:34:12.608Z,6.95
2023-05-22T15:39:14.097Z,6.53
2023-05-22T15:44:15.592Z,6.68
2023-05-22T15:49:17.107Z,7.75
2023-05-22T15:54:18.784Z,7.32
2023-05-22T15:59:20.322Z,6.07
2023-05-22T16:04:21.853Z,5.85
2023-05-22T16:09:23.371Z,5.85
2023-05-22T16:14:24.875Z,6.00
2023-05-22T16:19:29.045Z,5.80
2023-05-22T16:24:30.709Z,6.03
2023-05-22T16:29:32.172Z,6.60
2023-05-22T16:34:33.659Z,6.10
2023-05-22T16:39:35.137Z,6.85
2023-05-22T16:44:36.604Z,8.18
2023-05-22T16:49:39.575Z,7.25
2023-05-22T16:54:41.038Z,6.47
2023-05-22T16:59:42.559Z,6.00
2023-05-22T17:04:44.131Z,5.88
2023-05-22T17:09:45.635Z,5.75
2023-05-22T17:14:47.151Z,6.00
2023-05-22T17:19:48.655Z,6.65
2023-05-22T17:24:50.144Z,6.28
2023-05-22T17:29:51.616Z,6.90
2023-05-22T17:34:53.120Z,7.63
2023-05-22T17:39:54.634Z,6.85
2023-05-22T17:44:56.151Z,7.85
2023-05-22T17:49:57.707Z,8.63
2023-05-22T17:54:59.231Z,7.90
2023-05-22T18:00:00.690Z,8.23
2023-05-22T18:05:05.744Z,7.68
2023-05-22T18:10:08.015Z,8.43
2023-05-22T18:15:11.013Z,7.95
2023-05-22T18:20:12.570Z,8.32
2023-05-22T18:25:14.060Z,8.38
2023-05-22T18:30:15.810Z,7.97
2023-05-22T18:35:17.273Z,8.65
2023-05-22T18:40:18.775Z,8.68
2023-05-22T18:45:20.255Z,8.27
2023-05-22T18:50:23.427Z,7.78
2023-05-22T18:55:25.260Z,7.25
2023-05-22T19:00:26.738Z,8.55
2023-05-22T19:05:28.296Z,8.95
2023-05-22T19:10:29.854Z,8.80
2023-05-22T19:15:31.361Z,8.70
2023-05-22T19:20:32.841Z,8.60
2023-05-22T19:25:34.321Z,9.45
2023-05-22T19:30:35.858Z,8.88
2023-05-22T19:35:37.393Z,7.45
2023-05-22T19:40:39.093Z,7.75
2023-05-22T19:45:40.883Z,8.23
2023-05-22T19:50:42.610Z,7.82
2023-05-22T19:55:44.552Z,8.35
2023-05-22T20:00:46.049Z,8.63
2023-05-22T20:05:47.510Z,8.23
2023-05-22T20:10:49.016Z,9.55
2023-05-22T20:15:50.623Z,9.05
2023-05-22T20:20:52.121Z,9.43
2023-05-22T20:25:53.591Z,9.63
2023-05-22T20:30:55.137Z,9.32
2023-05-22T20:35:56.699Z,9.63
2023-05-22T20:40:58.184Z,9.75
2023-05-22T20:45:59.722Z,10.63
2023-05-22T20:51:01.223Z,10.23
2023-05-22T20:56:02.861Z,10.63
2023-05-22T21:01:04.434Z,10.00
2023-05-22T21:06:06.279Z,9.13
2023-05-22T21:11:07.764Z,8.68
2023-05-22T21:16:09.297Z,8.10
2023-05-22T21:21:10.928Z,7.93
2023-05-22T21:26:12.422Z,7.97
2023-05-22T21:31:14.236Z,7.32
2023-05-22T21:36:15.784Z,7.75
2023-05-22T21:41:17.328Z,7.78
2023-05-22T21:46:20.360Z,7.80
2023-05-22T21:51:21.854Z,8.73
2023-05-22T21:56:23.336Z,8.25
2023-05-22T22:01:24.875Z,8.68
2023-05-22T22:06:26.373Z,9.02
2023-05-22T22:11:27.841Z,9.73
2023-05-22T22:16:29.395Z,9.23
2023-05-22T22:21:30.871Z,9.73
2023-05-22T22:26:32.336Z,11.73
2023-05-22T22:31:33.982Z,10.20
2023-05-22T22:36:35.468Z,10.90
2023-05-22T22:41:36.965Z,10.80
2023-05-22T22:46:38.495Z,10.77
2023-05-22T22:51:39.982Z,11.05
2023-05-22T22:56:41.446Z,12.30
2023-05-22T23:01:43.308Z,11.75
2023-05-22T23:06:44.751Z,12.10
2023-05-22T23:11:46.211Z,12.02
2023-05-22T23:16:47.744Z,12.27
2023-05-22T23:21:49.204Z,11.85
2023-05-22T23:26:50.667Z,12.60
2023-05-22T23:31:52.216Z,11.60
2023-05-22T23:36:53.702Z,11.25
2023-05-22T23:41:55.182Z,12.23
2023-05-22T23:46:57.473Z,11.88
2023-05-22T23:51:59.041Z,11.75
2023-05-22T23:57:00.514Z,12.40
